Time;durP1;ratioP1;P1;durP2;ratioP2;P2;SDS_P1;SDS_P2;PMS_P1;PMS_P2;Temp;Humidity;BMP_temperature;BMP_pressure;BME280_temperature;BME280_humidity;BME280_pressure;Samples;Min_cycle;Max_cycle;Signal;HPM_P1;HPM_P2
2022/05/30 00:01:37;;;;;;;4.22;2.42;;;;;;;;;;5050408;28;20398;-75
2022/05/30 00:04:03;;;;;;;2.95;2.05;;;;;;;;;;5050373;28;20087;-75
2022/05/30 00:06:30;;;;;;;5.32;2.30;;;;;;;;;;5049330;28;20068;-75
2022/05/30 00:08:56;;;;;;;3.30;2.30;;;;;;;;;;5027450;28;20026;-76
2022/05/30 00:11:23;;;;;;;4.90;3.05;;;;;;;;;;5047417;28;20122;-75
2022/05/30 00:13:49;;;;;;;3.10;2.10;;;;;;;;;;5041699;28;20029;-75
2022/05/30 00:16:22;;;;;;;3.60;2.00;;;;;;;;;;5044735;28;20021;-75
2022/05/30 00:18:48;;;;;;;3.55;2.58;;;;;;;;;;5050516;28;20020;-74
2022/05/30 00:21:18;;;;;;;2.53;2.20;;;;;;;;;;5045584;28;20036;-75
2022/05/30 00:23:44;;;;;;;3.38;2.13;;;;;;;;;;5049737;28;20102;-74
2022/05/30 00:26:10;;;;;;;3.72;2.20;;;;;;;;;;5046163;28;20028;-74
2022/05/30 00:28:37;;;;;;;2.25;2.00;;;;;;;;;;5050425;28;20086;-74
2022/05/30 00:31:04;;;;;;;3.25;2.10;;;;;;;;;;5044852;28;20025;-74
2022/05/30 00:33:30;;;;;;;4.13;2.50;;;;;;;;;;5045075;28;20414;-75
2022/05/30 00:35:56;;;;;;;3.90;2.25;;;;;;;;;;5046970;28;20487;-74
2022/05/30 00:38:22;;;;;;;3.35;2.10;;;;;;;;;;5051218;28;20039;-75
2022/05/30 00:40:48;;;;;;;3.38;2.17;;;;;;;;;;5048532;28;20032;-75
2022/05/30 00:43:34;;;;;;;3.70;2.28;;;;;;;;;;5050789;28;20437;-74
2022/05/30 00:46:01;;;;;;;3.78;2.45;;;;;;;;;;5048026;28;20031;-75
2022/05/30 00:48:33;;;;;;;3.17;2.03;;;;;;;;;;5048798;28;20474;-76
2022/05/30 00:51:01;;;;;;;4.20;2.67;;;;;;;;;;5050168;28;20021;-75
2022/05/30 00:53:27;;;;;;;4.72;2.20;;;;;;;;;;5051181;28;20020;-75
2022/05/30 00:55:54;;;;;;;3.60;2.53;;;;;;;;;;5051678;28;20047;-75
2022/05/30 00:58:21;;;;;;;3.30;2.10;;;;;;;;;;5032350;28;20383;-75
2022/05/30 01:00:47;;;;;;;3.85;2.35;;;;;;;;;;5046305;28;20056;-75
2022/05/30 01:08:43;;;;;;;3.13;2.20;;;;;;;;;;5048135;28;20106;-75
2022/05/30 01:11:10;;;;;;;2.20;2.00;;;;;;;;;;5047634;28;20552;-74
2022/05/30 01:13:38;;;;;;;3.30;2.30;;;;;;;;;;5049487;28;20058;-75
2022/05/30 01:16:05;;;;;;;4.43;2.17;;;;;;;;;;5047719;28;20021;-75
2022/05/30 01:18:37;;;;;;;4.07;2.80;;;;;;;;;;5048300;28;20019;-75
2022/05/30 01:21:12;;;;;;;2.97;2.75;;;;;;;;;;5046879;28;20036;-75
2022/05/30 01:23:44;;;;;;;4.35;2.50;;;;;;;;;;5044238;28;20029;-75
2022/05/30 01:26:19;;;;;;;2.85;2.35;;;;;;;;;;5046449;28;20024;-75
2022/05/30 01:29:08;;;;;;;4.85;2.95;;;;;;;;;;5048366;28;20032;-75
2022/05/30 01:31:34;;;;;;;6.00;2.50;;;;;;;;;;5027496;28;20068;-74
2022/05/30 01:34:00;;;;;;;3.83;2.42;;;;;;;;;;5047458;28;20033;-75
2022/05/30 01:36:28;;;;;;;3.30;2.40;;;;;;;;;;5046559;28;20501;-75
2022/05/30 01:38:54;;;;;;;4.03;2.63;;;;;;;;;;5042416;28;20082;-74
2022/05/30 01:41:21;;;;;;;5.03;2.55;;;;;;;;;;5044484;28;20029;-74
2022/05/30 01:43:47;;;;;;;3.67;2.20;;;;;;;;;;5040375;28;20132;-74
2022/05/30 01:46:14;;;;;;;4.65;2.30;;;;;;;;;;5029144;28;20521;-74
2022/05/30 01:48:41;;;;;;;4.72;2.58;;;;;;;;;;5041696;28;20475;-74
2022/05/30 01:51:07;;;;;;;3.38;2.30;;;;;;;;;;5046101;28;20447;-75
2022/05/30 01:53:33;;;;;;;2.33;2.05;;;;;;;;;;5050044;28;20454;-75
2022/05/30 01:55:59;;;;;;;4.13;2.50;;;;;;;;;;5043625;28;20025;-75
2022/05/30 01:58:25;;;;;;;4.32;2.50;;;;;;;;;;5047815;28;20021;-74
2022/05/30 02:00:51;;;;;;;4.47;2.25;;;;;;;;;;5048025;28;20059;-74
2022/05/30 02:03:18;;;;;;;4.20;2.60;;;;;;;;;;5049650;28;20040;-73
2022/05/30 02:05:44;;;;;;;5.05;2.30;;;;;;;;;;5046075;28;20115;-74
2022/05/30 02:08:10;;;;;;;3.85;2.75;;;;;;;;;;5037475;28;20095;-74
2022/05/30 02:10:37;;;;;;;7.57;3.05;;;;;;;;;;5041847;28;20025;-74
2022/05/30 02:13:05;;;;;;;3.95;2.55;;;;;;;;;;5046754;28;20110;-74
2022/05/30 02:17:00;;;;;;;6.90;2.63;;;;;;;;;;5045226;28;20078;-75
2022/05/30 02:18:18;;;;;;;3.80;2.40;;;;;;;;;;5044675;28;20045;-73
2022/05/30 02:20:46;;;;;;;5.20;2.40;;;;;;;;;;5045684;28;20025;-74
2022/05/30 02:23:12;;;;;;;2.72;2.30;;;;;;;;;;5044717;28;20025;-74
2022/05/30 02:25:38;;;;;;;4.30;2.90;;;;;;;;;;5045365;28;20038;-74
2022/05/30 02:28:04;;;;;;;5.90;2.40;;;;;;;;;;5045382;28;20029;-75
2022/05/30 02:30:31;;;;;;;4.05;2.53;;;;;;;;;;5040875;28;20090;-73
2022/05/30 02:36:38;;;;;;;3.58;2.70;;;;;;;;;;5045971;28;20068;-73
2022/05/30 02:38:28;;;;;;;4.10;2.50;;;;;;;;;;5042993;28;20091;-73
2022/05/30 02:40:54;;;;;;;6.72;3.03;;;;;;;;;;5047021;28;20064;-74
2022/05/30 02:43:20;;;;;;;3.67;2.72;;;;;;;;;;5045060;28;20060;-74
2022/05/30 02:45:46;;;;;;;3.78;3.05;;;;;;;;;;5032841;28;20040;-74
2022/05/30 02:48:12;;;;;;;4.95;3.13;;;;;;;;;;5044964;28;20071;-74
2022/05/30 02:50:40;;;;;;;4.40;2.22;;;;;;;;;;5046016;28;20562;-75
2022/05/30 02:53:06;;;;;;;7.43;2.75;;;;;;;;;;5046743;28;20017;-74
2022/05/30 02:55:32;;;;;;;7.75;2.70;;;;;;;;;;5041737;28;20024;-73
2022/05/30 02:57:58;;;;;;;5.93;2.70;;;;;;;;;;5043213;28;20021;-74
2022/05/30 03:00:26;;;;;;;4.00;2.92;;;;;;;;;;5045530;28;20449;-74
2022/05/30 03:02:52;;;;;;;4.90;2.60;;;;;;;;;;5044369;28;20418;-73
2022/05/30 03:05:19;;;;;;;4.93;3.05;;;;;;;;;;5031246;28;20049;-74
2022/05/30 03:07:45;;;;;;;3.08;2.75;;;;;;;;;;5044733;28;20033;-74
2022/05/30 03:10:11;;;;;;;5.00;2.78;;;;;;;;;;5052464;28;20086;-74
2022/05/30 03:12:37;;;;;;;6.40;2.70;;;;;;;;;;5048044;28;20116;-74
2022/05/30 03:15:03;;;;;;;3.60;2.20;;;;;;;;;;5049107;28;20091;-74
2022/05/30 03:17:29;;;;;;;5.53;2.60;;;;;;;;;;5048144;28;20094;-73
2022/05/30 03:19:56;;;;;;;3.72;2.58;;;;;;;;;;5047070;28;20052;-74
2022/05/30 03:22:22;;;;;;;5.10;2.78;;;;;;;;;;5047291;28;20022;-74
2022/05/30 03:24:48;;;;;;;4.65;2.80;;;;;;;;;;5044419;28;20107;-74
2022/05/30 03:27:14;;;;;;;4.20;2.83;;;;;;;;;;5049866;28;20037;-74
2022/05/30 03:29:40;;;;;;;5.47;3.10;;;;;;;;;;5052185;28;20487;-74
2022/05/30 03:32:07;;;;;;;7.90;3.00;;;;;;;;;;5054061;28;20024;-73
2022/05/30 03:34:33;;;;;;;3.45;2.72;;;;;;;;;;5049674;28;20045;-73
2022/05/30 03:36:59;;;;;;;4.13;2.83;;;;;;;;;;5042872;28;20503;-75
2022/05/30 03:39:25;;;;;;;5.47;2.80;;;;;;;;;;5049025;28;20437;-73
2022/05/30 03:41:51;;;;;;;3.70;2.40;;;;;;;;;;5050259;28;20056;-73
2022/05/30 03:44:17;;;;;;;4.65;2.58;;;;;;;;;;5049391;28;20160;-75
2022/05/30 03:46:43;;;;;;;6.90;3.20;;;;;;;;;;5047890;28;20482;-74
2022/05/30 03:49:09;;;;;;;4.15;2.95;;;;;;;;;;5048002;28;20064;-74
2022/05/30 03:51:35;;;;;;;6.72;2.92;;;;;;;;;;5030506;28;20067;-74
2022/05/30 03:54:02;;;;;;;4.40;2.63;;;;;;;;;;5048029;28;20021;-74
2022/05/30 03:56:28;;;;;;;5.10;2.70;;;;;;;;;;5048975;28;20028;-74
2022/05/30 03:58:54;;;;;;;6.43;2.72;;;;;;;;;;5047872;28;20061;-75
2022/05/30 04:01:20;;;;;;;5.78;3.05;;;;;;;;;;5054621;28;20025;-74
2022/05/30 04:03:46;;;;;;;3.85;2.97;;;;;;;;;;5049910;28;20347;-74
2022/05/30 04:06:12;;;;;;;3.63;2.88;;;;;;;;;;5050945;28;20064;-74
2022/05/30 04:08:38;;;;;;;6.72;3.10;;;;;;;;;;5049380;28;20024;-73
2022/05/30 04:11:04;;;;;;;5.25;2.55;;;;;;;;;;5049596;28;20021;-74
2022/05/30 04:13:30;;;;;;;5.68;3.05;;;;;;;;;;5049626;28;20546;-74
2022/05/30 04:15:57;;;;;;;7.38;2.90;;;;;;;;;;5045932;28;20407;-74
2022/05/30 04:18:23;;;;;;;8.10;3.35;;;;;;;;;;5044308;28;20040;-73
2022/05/30 04:20:52;;;;;;;3.63;2.85;;;;;;;;;;5053027;28;20029;-74
2022/05/30 04:23:18;;;;;;;5.13;3.10;;;;;;;;;;5044649;28;20037;-74
2022/05/30 04:25:44;;;;;;;7.45;2.78;;;;;;;;;;5053887;28;20037;-73
2022/05/30 04:28:10;;;;;;;6.45;3.60;;;;;;;;;;5046335;28;20052;-74
2022/05/30 04:30:37;;;;;;;6.35;3.03;;;;;;;;;;5050330;28;20035;-74
2022/05/30 04:33:03;;;;;;;4.15;2.67;;;;;;;;;;5049805;28;20067;-72
2022/05/30 04:35:29;;;;;;;6.13;2.78;;;;;;;;;;5046482;28;20646;-73
2022/05/30 04:37:55;;;;;;;7.00;3.00;;;;;;;;;;5048337;28;20494;-74
2022/05/30 04:40:21;;;;;;;4.85;2.92;;;;;;;;;;5047797;28;20483;-73
2022/05/30 04:42:47;;;;;;;4.75;2.97;;;;;;;;;;5049767;28;20068;-74
2022/05/30 04:45:14;;;;;;;6.32;2.92;;;;;;;;;;5047383;28;20115;-72
2022/05/30 04:47:41;;;;;;;4.28;2.80;;;;;;;;;;5052284;28;20060;-73
2022/05/30 04:50:09;;;;;;;7.25;3.63;;;;;;;;;;5047576;28;20032;-72
2022/05/30 04:52:38;;;;;;;3.97;2.58;;;;;;;;;;5050245;28;20071;-72
2022/05/30 04:55:04;;;;;;;7.50;3.00;;;;;;;;;;5050223;28;20104;-73
2022/05/30 04:57:30;;;;;;;9.23;3.80;;;;;;;;;;5049386;28;20295;-74
2022/05/30 04:59:56;;;;;;;8.02;3.10;;;;;;;;;;5045539;28;20037;-73
2022/05/30 05:02:22;;;;;;;5.47;2.83;;;;;;;;;;5045501;28;20491;-73
2022/05/30 05:04:48;;;;;;;4.50;3.10;;;;;;;;;;5047613;28;20033;-74
2022/05/30 05:07:14;;;;;;;5.95;3.00;;;;;;;;;;5046026;28;20029;-73
2022/05/30 05:09:46;;;;;;;5.53;2.70;;;;;;;;;;5048823;28;20160;-73
2022/05/30 05:12:12;;;;;;;5.50;2.72;;;;;;;;;;5038953;28;20353;-74
2022/05/30 05:14:38;;;;;;;5.80;3.10;;;;;;;;;;5047617;28;20029;-74
2022/05/30 05:17:08;;;;;;;9.95;3.78;;;;;;;;;;5047171;28;20029;-75
2022/05/30 05:19:35;;;;;;;6.00;2.97;;;;;;;;;;5043687;28;20024;-74
2022/05/30 05:22:01;;;;;;;4.93;2.78;;;;;;;;;;5039315;28;20029;-73
2022/05/30 05:24:27;;;;;;;6.10;2.75;;;;;;;;;;5048179;28;20048;-74
2022/05/30 05:26:53;;;;;;;7.55;3.30;;;;;;;;;;5049354;28;20024;-74
2022/05/30 05:29:19;;;;;;;7.43;2.78;;;;;;;;;;5044573;28;20025;-73
2022/05/30 05:31:46;;;;;;;6.78;3.05;;;;;;;;;;5046692;28;20389;-73
2022/05/30 05:34:13;;;;;;;3.28;2.58;;;;;;;;;;5046620;28;20043;-74
2022/05/30 05:36:41;;;;;;;6.15;3.00;;;;;;;;;;5045343;28;20025;-73
2022/05/30 05:39:07;;;;;;;6.57;3.03;;;;;;;;;;5049813;28;20025;-74
2022/05/30 05:41:33;;;;;;;6.90;3.30;;;;;;;;;;5051860;28;20037;-73
2022/05/30 05:44:00;;;;;;;7.25;3.13;;;;;;;;;;5044944;28;20535;-73
2022/05/30 05:46:28;;;;;;;5.85;2.85;;;;;;;;;;5042831;28;20037;-74
2022/05/30 05:48:56;;;;;;;4.68;3.00;;;;;;;;;;5044401;28;20601;-74
2022/05/30 05:51:22;;;;;;;4.57;3.08;;;;;;;;;;5042652;28;20494;-74
2022/05/30 05:53:49;;;;;;;6.13;2.90;;;;;;;;;;5045473;28;20071;-74
2022/05/30 05:56:23;;;;;;;5.60;2.50;;;;;;;;;;5047028;28;20028;-73
2022/05/30 05:58:50;;;;;;;5.33;3.20;;;;;;;;;;5047930;28;20067;-73
2022/05/30 06:01:21;;;;;;;9.90;3.42;;;;;;;;;;5047423;28;20032;-73
2022/05/30 06:03:47;;;;;;;6.40;3.95;;;;;;;;;;5047201;28;20025;-74
2022/05/30 06:06:14;;;;;;;10.27;3.40;;;;;;;;;;5045180;28;20179;-74
2022/05/30 06:08:40;;;;;;;7.28;3.05;;;;;;;;;;5049424;28;20025;-74
2022/05/30 06:11:08;;;;;;;4.05;2.60;;;;;;;;;;5047474;28;20052;-73
2022/05/30 06:13:41;;;;;;;6.07;3.78;;;;;;;;;;5050655;28;20111;-73
2022/05/30 06:16:08;;;;;;;6.28;3.85;;;;;;;;;;5044630;28;20017;-73
2022/05/30 06:18:35;;;;;;;7.43;3.30;;;;;;;;;;5046144;28;20482;-74
2022/05/30 06:21:01;;;;;;;7.22;2.97;;;;;;;;;;5045222;28;20390;-74
2022/05/30 06:23:28;;;;;;;6.28;3.38;;;;;;;;;;5048070;28;20569;-75
2022/05/30 06:25:54;;;;;;;4.20;2.88;;;;;;;;;;5046368;28;20036;-75
2022/05/30 06:28:20;;;;;;;5.25;3.22;;;;;;;;;;5044628;28;20043;-72
2022/05/30 06:30:47;;;;;;;5.22;2.60;;;;;;;;;;5041618;28;20752;-74
2022/05/30 06:33:13;;;;;;;4.40;2.40;;;;;;;;;;5022411;28;20017;-74
2022/05/30 06:35:40;;;;;;;6.88;2.85;;;;;;;;;;5043055;28;20106;-74
2022/05/30 06:38:09;;;;;;;4.88;2.72;;;;;;;;;;5042144;28;20032;-74
2022/05/30 06:40:35;;;;;;;4.28;2.92;;;;;;;;;;5045878;28;20017;-74
2022/05/30 06:43:01;;;;;;;6.18;2.80;;;;;;;;;;5046717;28;20085;-74
2022/05/30 06:45:27;;;;;;;4.65;2.60;;;;;;;;;;5043451;28;20056;-74
2022/05/30 06:47:53;;;;;;;8.20;2.80;;;;;;;;;;5028219;28;20040;-75
2022/05/30 06:50:19;;;;;;;4.63;2.80;;;;;;;;;;5044119;28;20100;-74
2022/05/30 06:52:46;;;;;;;5.15;2.90;;;;;;;;;;5043901;28;20028;-75
2022/05/30 06:55:12;;;;;;;4.75;3.35;;;;;;;;;;5046100;28;20021;-75
2022/05/30 07:00:22;;;;;;;8.60;2.85;;;;;;;;;;5037464;28;20048;-75
2022/05/30 07:02:50;;;;;;;5.13;2.70;;;;;;;;;;5040365;28;20056;-76
2022/05/30 07:05:16;;;;;;;7.40;3.13;;;;;;;;;;5041302;28;20496;-73
2022/05/30 07:07:42;;;;;;;8.50;3.38;;;;;;;;;;5039650;28;20148;-73
2022/05/30 07:10:11;;;;;;;6.28;2.60;;;;;;;;;;5038230;28;20462;-74
2022/05/30 07:12:37;;;;;;;4.85;2.60;;;;;;;;;;5040966;28;20021;-74
2022/05/30 07:15:04;;;;;;;8.00;3.97;;;;;;;;;;5040335;28;20078;-75
2022/05/30 07:17:30;;;;;;;7.85;3.00;;;;;;;;;;5018660;28;20064;-74
2022/05/30 07:19:59;;;;;;;4.93;2.30;;;;;;;;;;5036541;28;20044;-75
2022/05/30 07:22:26;;;;;;;6.43;2.60;;;;;;;;;;5042102;28;20028;-75
2022/05/30 07:24:52;;;;;;;6.82;2.88;;;;;;;;;;5038962;28;20025;-76
2022/05/30 07:27:18;;;;;;;5.25;2.50;;;;;;;;;;5040829;28;20059;-74
2022/05/30 07:29:44;;;;;;;7.57;2.60;;;;;;;;;;5041010;28;20104;-75
2022/05/30 07:32:10;;;;;;;3.47;2.30;;;;;;;;;;5040824;28;20048;-75
2022/05/30 07:34:37;;;;;;;3.88;2.28;;;;;;;;;;5043453;28;20064;-74
2022/05/30 07:37:03;;;;;;;4.88;2.88;;;;;;;;;;5043778;28;20066;-74
2022/05/30 07:39:29;;;;;;;4.70;2.63;;;;;;;;;;5037957;28;20036;-75
2022/05/30 07:41:55;;;;;;;4.38;2.40;;;;;;;;;;5041470;28;20029;-75
2022/05/30 07:44:22;;;;;;;3.30;2.25;;;;;;;;;;5032636;28;20032;-75
2022/05/30 07:46:48;;;;;;;5.22;2.53;;;;;;;;;;5040891;28;20029;-76
2022/05/30 07:49:14;;;;;;;6.75;3.08;;;;;;;;;;5045238;28;20104;-75
2022/05/30 07:51:42;;;;;;;5.70;2.60;;;;;;;;;;5040901;28;20022;-75
2022/05/30 07:54:09;;;;;;;4.60;2.58;;;;;;;;;;5040087;28;20017;-74
2022/05/30 07:56:35;;;;;;;4.35;3.05;;;;;;;;;;5043296;28;20051;-75
2022/05/30 07:59:01;;;;;;;6.10;2.60;;;;;;;;;;5044510;28;20021;-75
2022/05/30 08:01:27;;;;;;;4.22;2.53;;;;;;;;;;5044445;28;20029;-75
2022/05/30 08:03:53;;;;;;;6.45;2.85;;;;;;;;;;5039510;28;20025;-76
2022/05/30 08:06:21;;;;;;;4.25;2.78;;;;;;;;;;5044073;28;20025;-76
2022/05/30 08:08:47;;;;;;;5.70;2.80;;;;;;;;;;5045325;28;20033;-76
2022/05/30 08:11:15;;;;;;;7.50;3.00;;;;;;;;;;5038361;28;20033;-75
2022/05/30 08:13:42;;;;;;;9.32;3.10;;;;;;;;;;5041137;28;20535;-75
2022/05/30 08:16:08;;;;;;;4.35;2.67;;;;;;;;;;5035051;28;20344;-75
2022/05/30 08:18:34;;;;;;;6.28;3.58;;;;;;;;;;5039735;28;20033;-75
2022/05/30 08:21:00;;;;;;;5.18;2.70;;;;;;;;;;5042829;28;20542;-75
2022/05/30 08:23:27;;;;;;;5.22;3.13;;;;;;;;;;5039388;28;20041;-75
2022/05/30 08:25:54;;;;;;;5.22;2.90;;;;;;;;;;5041609;28;20025;-75
2022/05/30 08:28:20;;;;;;;3.33;2.33;;;;;;;;;;5036854;28;20028;-75
2022/05/30 08:30:46;;;;;;;7.45;2.63;;;;;;;;;;5039751;28;20490;-75
2022/05/30 08:33:13;;;;;;;6.70;2.72;;;;;;;;;;5038818;28;20080;-75
2022/05/30 08:35:39;;;;;;;6.40;2.83;;;;;;;;;;5039943;28;20120;-75
2022/05/30 08:38:06;;;;;;;6.25;3.17;;;;;;;;;;5049224;28;20352;-76
2022/05/30 08:43:29;;;;;;;7.90;3.55;;;;;;;;;;5040894;28;20040;-76
2022/05/30 08:46:01;;;;;;;5.97;2.67;;;;;;;;;;5048165;28;20029;-76
2022/05/30 08:48:46;;;;;;;4.43;2.88;;;;;;;;;;5030007;28;20483;-75
2022/05/30 08:51:27;;;;;;;4.65;2.95;;;;;;;;;;5049239;28;20025;-76
2022/05/30 08:54:11;;;;;;;7.63;2.92;;;;;;;;;;5041290;28;20021;-75
2022/05/30 08:56:40;;;;;;;4.25;2.97;;;;;;;;;;5041154;28;20040;-76
2022/05/30 08:59:16;;;;;;;7.07;2.80;;;;;;;;;;5037818;28;20087;-76
2022/05/30 09:01:46;;;;;;;5.13;2.95;;;;;;;;;;5039291;28;20148;-76
2022/05/30 09:04:27;;;;;;;3.88;2.70;;;;;;;;;;5038157;28;20286;-75
2022/05/30 09:06:58;;;;;;;3.47;2.40;;;;;;;;;;5035804;28;20454;-75
2022/05/30 09:09:27;;;;;;;5.68;2.67;;;;;;;;;;5019755;28;20387;-75
2022/05/30 09:12:03;;;;;;;7.47;3.00;;;;;;;;;;5020925;28;20028;-76
2022/05/30 09:14:35;;;;;;;5.20;2.92;;;;;;;;;;5037378;28;20029;-77
2022/05/30 09:17:02;;;;;;;6.97;2.63;;;;;;;;;;5041624;28;20035;-75
2022/05/30 09:19:29;;;;;;;5.30;2.70;;;;;;;;;;5039662;28;20025;-76
2022/05/30 09:22:01;;;;;;;4.47;2.60;;;;;;;;;;5043984;28;20102;-75
2022/05/30 09:24:29;;;;;;;5.75;2.50;;;;;;;;;;5042796;28;20029;-76
2022/05/30 09:26:57;;;;;;;5.20;2.50;;;;;;;;;;5039946;28;20037;-75
2022/05/30 09:29:27;;;;;;;5.43;2.85;;;;;;;;;;5038139;28;20083;-75
2022/05/30 09:32:11;;;;;;;5.75;2.80;;;;;;;;;;5039054;28;20029;-75
2022/05/30 09:34:46;;;;;;;5.78;2.70;;;;;;;;;;5037529;28;20128;-76
2022/05/30 09:37:24;;;;;;;4.40;2.50;;;;;;;;;;5039176;28;20747;-76
2022/05/30 09:39:50;;;;;;;4.15;2.60;;;;;;;;;;5038862;28;20056;-75
2022/05/30 09:42:22;;;;;;;6.72;4.20;;;;;;;;;;5037273;28;20196;-76
2022/05/30 09:44:50;;;;;;;7.72;3.08;;;;;;;;;;5040666;28;20028;-76
2022/05/30 09:47:17;;;;;;;4.10;2.90;;;;;;;;;;5041321;28;20111;-76
2022/05/30 09:49:45;;;;;;;5.70;2.45;;;;;;;;;;5042385;28;20043;-75
2022/05/30 09:52:23;;;;;;;6.22;2.75;;;;;;;;;;5035535;28;20032;-75
2022/05/30 09:54:49;;;;;;;4.68;2.35;;;;;;;;;;5038712;28;20041;-76
2022/05/30 09:57:28;;;;;;;4.15;2.17;;;;;;;;;;5045210;28;20045;-76
2022/05/30 09:59:56;;;;;;;3.63;2.28;;;;;;;;;;5045087;28;20059;-76
2022/05/30 10:02:24;;;;;;;4.32;2.20;;;;;;;;;;5047413;28;20108;-76
2022/05/30 10:05:05;;;;;;;5.47;2.50;;;;;;;;;;5032859;28;20457;-76
2022/05/30 10:07:32;;;;;;;4.32;2.28;;;;;;;;;;5043581;28;20422;-76
2022/05/30 10:10:17;;;;;;;3.17;2.22;;;;;;;;;;5047425;28;20021;-76
2022/05/30 10:12:52;;;;;;;3.30;2.83;;;;;;;;;;5044662;28;20033;-76
2022/05/30 10:15:29;;;;;;;4.72;2.20;;;;;;;;;;5041294;28;20451;-76
2022/05/30 10:17:57;;;;;;;2.33;1.90;;;;;;;;;;5052950;28;20086;-76
2022/05/30 10:20:33;;;;;;;4.30;2.17;;;;;;;;;;5047925;28;20116;-77
2022/05/30 10:28:39;;;;;;;3.63;1.98;;;;;;;;;;5046150;28;20539;-75
2022/05/30 10:31:17;;;;;;;3.17;2.47;;;;;;;;;;5048222;28;20013;-76
2022/05/30 10:34:02;;;;;;;7.07;2.60;;;;;;;;;;5050285;28;20065;-77
2022/05/30 10:36:31;;;;;;;3.63;2.13;;;;;;;;;;5045934;28;20048;-75
2022/05/30 10:39:13;;;;;;;2.47;1.90;;;;;;;;;;5044626;28;20279;-75
2022/05/30 10:41:45;;;;;;;2.08;1.80;;;;;;;;;;5048430;28;20021;-76
2022/05/30 10:44:15;;;;;;;2.83;1.88;;;;;;;;;;5045552;28;20040;-76
2022/05/30 10:46:50;;;;;;;6.13;2.40;;;;;;;;;;5047329;28;20029;-74
2022/05/30 10:49:19;;;;;;;2.28;1.90;;;;;;;;;;5048031;28;20032;-76
2022/05/30 10:51:50;;;;;;;3.00;2.13;;;;;;;;;;5049072;28;20432;-76
2022/05/30 10:54:35;;;;;;;5.13;2.22;;;;;;;;;;5043054;28;20056;-76
2022/05/30 10:57:21;;;;;;;4.45;2.42;;;;;;;;;;5041769;28;20033;-75
2022/05/30 10:59:57;;;;;;;4.18;2.25;;;;;;;;;;5007634;28;20390;-76
2022/05/30 11:02:30;;;;;;;5.88;2.30;;;;;;;;;;5040532;28;20039;-74
2022/05/30 11:05:09;;;;;;;3.53;2.10;;;;;;;;;;5038811;28;20506;-75
2022/05/30 11:07:38;;;;;;;3.05;2.00;;;;;;;;;;5041754;28;20039;-77
2022/05/30 11:10:07;;;;;;;4.38;2.15;;;;;;;;;;5041031;28;20096;-76
2022/05/30 11:12:38;;;;;;;3.85;2.28;;;;;;;;;;5036922;28;20033;-76
2022/05/30 11:15:23;;;;;;;3.30;1.90;;;;;;;;;;5042655;28;20029;-77
2022/05/30 11:17:55;;;;;;;2.15;1.60;;;;;;;;;;5045602;28;20470;-76
2022/05/30 11:20:27;;;;;;;3.22;1.88;;;;;;;;;;5048056;28;20346;-75
2022/05/30 11:22:54;;;;;;;2.00;1.70;;;;;;;;;;5045959;28;20037;-75
2022/05/30 11:25:38;;;;;;;3.88;2.30;;;;;;;;;;5045271;28;20013;-75
2022/05/30 11:28:07;;;;;;;3.88;1.70;;;;;;;;;;5045282;28;20036;-76
2022/05/30 11:30:47;;;;;;;2.15;1.60;;;;;;;;;;5045659;28;20029;-76
2022/05/30 11:33:28;;;;;;;3.88;1.83;;;;;;;;;;5050422;28;20468;-76
2022/05/30 11:36:17;;;;;;;3.03;2.00;;;;;;;;;;5051126;28;20082;-76
2022/05/30 11:39:15;;;;;;;4.43;2.20;;;;;;;;;;5045444;28;20061;-76
2022/05/30 11:41:59;;;;;;;2.30;1.88;;;;;;;;;;4979637;28;20048;-76
2022/05/30 11:44:40;;;;;;;4.85;2.00;;;;;;;;;;5037860;28;20165;-75
2022/05/30 11:47:25;;;;;;;5.43;2.45;;;;;;;;;;5046547;28;20041;-76
2022/05/30 11:50:07;;;;;;;6.07;2.13;;;;;;;;;;5051360;28;20036;-76
2022/05/30 11:52:42;;;;;;;7.47;2.30;;;;;;;;;;5045556;28;20017;-76
2022/05/30 11:55:14;;;;;;;4.95;2.47;;;;;;;;;;5046545;28;20033;-76
2022/05/30 11:57:59;;;;;;;2.55;1.88;;;;;;;;;;5046083;28;20025;-75
2022/05/30 12:00:34;;;;;;;4.07;2.00;;;;;;;;;;5048678;28;20028;-75
2022/05/30 12:03:03;;;;;;;2.72;1.90;;;;;;;;;;5050957;28;20017;-76
2022/05/30 12:05:47;;;;;;;2.55;1.85;;;;;;;;;;5040581;28;20029;-76
2022/05/30 12:08:32;;;;;;;3.00;2.10;;;;;;;;;;5042400;28;20032;-75
2022/05/30 12:10:58;;;;;;;4.43;2.10;;;;;;;;;;5039516;28;20025;-76
2022/05/30 12:13:44;;;;;;;3.42;2.15;;;;;;;;;;5023811;28;20111;-76
2022/05/30 12:16:12;;;;;;;5.00;2.05;;;;;;;;;;5039129;28;21257;-76
2022/05/30 12:24:15;;;;;;;3.45;2.00;;;;;;;;;;5042057;28;20513;-75
2022/05/30 12:26:54;;;;;;;8.82;2.10;;;;;;;;;;5039581;28;20036;-76
2022/05/30 12:29:44;;;;;;;3.80;2.08;;;;;;;;;;5040122;28;20424;-76
2022/05/30 12:32:36;;;;;;;2.80;2.42;;;;;;;;;;5035023;28;20032;-74
2022/05/30 12:35:11;;;;;;;6.90;2.40;;;;;;;;;;5040669;28;20405;-75
2022/05/30 12:37:56;;;;;;;5.57;2.83;;;;;;;;;;5046289;28;20048;-75
2022/05/30 12:40:25;;;;;;;2.53;1.80;;;;;;;;;;5046030;28;20407;-75
2022/05/30 12:43:06;;;;;;;5.63;3.35;;;;;;;;;;5043646;28;20029;-75
2022/05/30 12:45:41;;;;;;;4.47;2.20;;;;;;;;;;5037780;28;20493;-76
2022/05/30 12:48:13;;;;;;;4.28;2.35;;;;;;;;;;5039607;28;20032;-76
2022/05/30 12:50:43;;;;;;;3.08;1.83;;;;;;;;;;5040511;28;20139;-75
2022/05/30 12:53:09;;;;;;;2.83;1.98;;;;;;;;;;5042973;28;20031;-76
2022/05/30 12:55:41;;;;;;;3.72;1.90;;;;;;;;;;5040295;28;20037;-76
2022/05/30 12:58:11;;;;;;;3.97;2.05;;;;;;;;;;5040522;28;20029;-75
2022/05/30 13:00:41;;;;;;;4.68;2.33;;;;;;;;;;5040244;28;20389;-75
2022/05/30 13:03:24;;;;;;;2.70;2.10;;;;;;;;;;5046341;28;20301;-75
2022/05/30 13:06:11;;;;;;;4.40;2.05;;;;;;;;;;5047344;28;20025;-75
2022/05/30 13:08:56;;;;;;;2.22;1.80;;;;;;;;;;5053790;28;20116;-76
2022/05/30 13:11:32;;;;;;;4.85;2.10;;;;;;;;;;5042644;28;20025;-77
2022/05/30 13:14:04;;;;;;;3.55;1.85;;;;;;;;;;5043317;28;20033;-77
2022/05/30 13:16:41;;;;;;;4.15;2.30;;;;;;;;;;5039489;28;20132;-76
2022/05/30 13:19:11;;;;;;;3.17;2.00;;;;;;;;;;5041950;28;20029;-76
2022/05/30 13:21:39;;;;;;;2.65;1.90;;;;;;;;;;5038640;28;20594;-76
2022/05/30 13:24:24;;;;;;;5.60;2.08;;;;;;;;;;5042514;28;20348;-76
2022/05/30 13:26:50;;;;;;;3.38;2.10;;;;;;;;;;5037735;28;20021;-77
2022/05/30 13:29:16;;;;;;;2.40;2.10;;;;;;;;;;5040330;28;20029;-76
2022/05/30 13:31:42;;;;;;;3.47;1.92;;;;;;;;;;5039754;28;20029;-74
2022/05/30 13:34:08;;;;;;;4.25;2.58;;;;;;;;;;5026180;28;20517;-76
2022/05/30 13:36:34;;;;;;;3.40;2.80;;;;;;;;;;5048620;28;20079;-76
2022/05/30 13:39:03;;;;;;;3.33;2.30;;;;;;;;;;5044920;28;20044;-76
2022/05/30 13:41:30;;;;;;;2.55;2.08;;;;;;;;;;5049867;28;20055;-76
2022/05/30 13:44:00;;;;;;;4.93;2.22;;;;;;;;;;5048196;28;20509;-76
2022/05/30 13:46:29;;;;;;;3.80;2.03;;;;;;;;;;5047309;28;20546;-76
2022/05/30 13:48:55;;;;;;;3.90;2.70;;;;;;;;;;5050149;28;20025;-76
2022/05/30 13:51:36;;;;;;;5.72;1.83;;;;;;;;;;5041188;28;20383;-75
2022/05/30 13:54:02;;;;;;;3.50;1.98;;;;;;;;;;5039500;28;20683;-76
2022/05/30 13:56:34;;;;;;;1.88;1.77;;;;;;;;;;5043151;28;20083;-77
2022/05/30 13:59:03;;;;;;;2.40;1.50;;;;;;;;;;5038600;28;20033;-75
2022/05/30 14:01:33;;;;;;;1.38;1.27;;;;;;;;;;5041066;28;20123;-76
2022/05/30 14:04:07;;;;;;;1.75;1.65;;;;;;;;;;5037586;28;20036;-76
2022/05/30 14:06:34;;;;;;;2.17;1.90;;;;;;;;;;5041791;28;20040;-76
2022/05/30 14:09:01;;;;;;;2.20;1.80;;;;;;;;;;5039078;28;20025;-76
2022/05/30 14:11:37;;;;;;;1.85;1.67;;;;;;;;;;5037531;28;20451;-75
2022/05/30 14:14:04;;;;;;;4.28;1.85;;;;;;;;;;5044491;28;20051;-76
2022/05/30 14:16:34;;;;;;;2.85;2.03;;;;;;;;;;5023236;28;20167;-76
2022/05/30 14:19:03;;;;;;;2.92;2.00;;;;;;;;;;5040983;28;20029;-76
2022/05/30 14:21:30;;;;;;;3.83;2.20;;;;;;;;;;5037538;28;20139;-77
2022/05/30 14:24:03;;;;;;;2.17;1.98;;;;;;;;;;5039389;28;20029;-76
2022/05/30 14:26:31;;;;;;;1.90;1.70;;;;;;;;;;5039029;28;20028;-76
2022/05/30 14:29:00;;;;;;;2.47;1.67;;;;;;;;;;5037615;28;20390;-75
2022/05/30 14:31:29;;;;;;;1.83;1.73;;;;;;;;;;5040135;28;20082;-77
2022/05/30 14:33:59;;;;;;;1.55;1.45;;;;;;;;;;5036033;28;20041;-76
2022/05/30 14:36:40;;;;;;;2.50;1.90;;;;;;;;;;5041521;28;20047;-76
2022/05/30 14:39:10;;;;;;;4.72;2.40;;;;;;;;;;5041080;28;20053;-76
2022/05/30 14:41:37;;;;;;;1.90;1.33;;;;;;;;;;5035138;28;20028;-76
2022/05/30 14:44:03;;;;;;;3.13;1.67;;;;;;;;;;5033784;28;20112;-77
2022/05/30 14:46:29;;;;;;;1.75;1.40;;;;;;;;;;5039960;28;20107;-76
2022/05/30 14:48:56;;;;;;;3.55;1.75;;;;;;;;;;5018963;28;20028;-76
2022/05/30 14:51:34;;;;;;;4.78;1.90;;;;;;;;;;5038121;28;20033;-75
2022/05/30 14:54:10;;;;;;;5.93;2.15;;;;;;;;;;5040665;28;20152;-75
2022/05/30 14:56:39;;;;;;;3.83;1.85;;;;;;;;;;5020957;28;20040;-76
2022/05/30 14:59:05;;;;;;;1.80;1.70;;;;;;;;;;5035344;28;20040;-76
2022/05/30 15:01:33;;;;;;;2.42;1.85;;;;;;;;;;5034164;28;20072;-74
2022/05/30 15:04:02;;;;;;;4.30;2.13;;;;;;;;;;5035586;28;20104;-76
2022/05/30 15:06:45;;;;;;;2.30;2.10;;;;;;;;;;5041655;28;20501;-74
2022/05/30 15:09:13;;;;;;;5.45;2.15;;;;;;;;;;5034938;28;20053;-73
2022/05/30 15:11:39;;;;;;;4.13;2.17;;;;;;;;;;5041331;28;20060;-75
2022/05/30 15:14:08;;;;;;;4.28;2.40;;;;;;;;;;5040092;28;20036;-75
2022/05/30 15:16:35;;;;;;;2.05;1.85;;;;;;;;;;5038502;28;20043;-73
2022/05/30 15:19:02;;;;;;;2.40;2.08;;;;;;;;;;5040716;28;20029;-75
2022/05/30 15:21:33;;;;;;;3.50;1.95;;;;;;;;;;5038121;28;20311;-75
2022/05/30 15:24:00;;;;;;;6.28;1.90;;;;;;;;;;5041219;28;20035;-76